Time,TemperatureF,DewpointF,PressureIn,WindDirection,WindDirectionDegrees,WindSpeedMPH,WindSpeedGustMPH,Humidity,HourlyPrecipIn,Conditions,Clouds,dailyrainin,SoftwareType,DateUTC
2013-05-08 00:01:00,56.0,54.9,29.88,South,187,1.0,1.0,96,0.00,,OVC075,0.03,VWS V14.01,2013-05-08 04:01:00,
2013-05-08 00:06:00,55.9,54.8,29.88,South,187,1.0,1.0,96,0.00,,OVC075,0.00,VWS V14.01,2013-05-08 04:06:00,
2013-05-08 00:11:00,55.9,54.8,29.88,South,187,1.0,1.0,96,0.00,,OVC075,0.00,VWS V14.01,2013-05-08 04:11:00,
2013-05-08 00:16:00,55.7,54.6,29.88,South,187,1.0,1.0,96,0.00,,OVC075,0.00,VWS V14.01,2013-05-08 04:16:00,
2013-05-08 00:21:00,55.6,54.5,29.88,South,187,1.0,1.0,96,0.00,,OVC075,0.00,VWS V14.01,2013-05-08 04:21:00,
2013-05-08 00:26:00,55.4,54.3,29.88,South,187,1.0,1.0,96,0.00,,OVC075,0.00,VWS V14.01,2013-05-08 04:26:00,
2013-05-08 00:31:00,55.4,54.3,29.87,South,187,1.0,1.0,96,0.00,,OVC075,0.00,VWS V14.01,2013-05-08 04:31:00,
2013-05-08 00:36:00,55.1,54.0,29.87,South,187,1.0,1.0,96,0.00,,OVC075,0.00,VWS V14.01,2013-05-08 04:36:00,
2013-05-08 00:41:00,55.0,53.9,29.87,South,187,1.0,1.0,96,0.00,,OVC075,0.00,VWS V14.01,2013-05-08 04:41:00,
2013-05-08 00:46:00,54.8,53.7,29.87,South,187,1.0,1.0,96,0.00,,OVC080,0.00,VWS V14.01,2013-05-08 04:46:00,
2013-05-08 00:51:00,54.8,53.7,29.87,South,187,1.0,1.0,96,0.00,,OVC080,0.00,VWS V14.01,2013-05-08 04:51:00,
2013-05-08 00:56:00,54.8,54.0,29.87,South,187,1.0,1.0,97,0.00,,OVC080,0.00,VWS V14.01,2013-05-08 04:56:00,
2013-05-08 01:01:00,54.7,53.6,29.87,South,187,1.0,1.0,96,0.00,,OVC080,0.00,VWS V14.01,2013-05-08 05:01:00,
2013-05-08 01:06:00,54.5,53.4,29.87,South,187,1.0,1.0,96,0.00,,OVC080,0.00,VWS V14.01,2013-05-08 05:06:00,
2013-05-08 01:11:00,54.5,53.7,29.87,South,187,1.0,1.0,97,0.00,,OVC080,0.00,VWS V14.01,2013-05-08 05:11:00,
2013-05-08 01:16:00,54.4,53.6,29.88,South,187,1.0,1.0,97,0.00,,OVC080,0.00,VWS V14.01,2013-05-08 05:16:00,
2013-05-08 01:21:00,54.4,53.6,29.88,South,187,1.0,1.0,97,0.00,,OVC080,0.00,VWS V14.01,2013-05-08 05:21:00,
2013-05-08 01:26:00,54.4,53.6,29.88,South,187,1.0,1.0,97,0.00,,OVC080,0.00,VWS V14.01,2013-05-08 05:26:00,
2013-05-08 01:31:00,54.2,53.4,29.87,South,187,1.0,1.0,97,0.00,,OVC080,0.00,VWS V14.01,2013-05-08 05:31:00,
2013-05-08 01:36:00,54.1,53.3,29.87,South,187,1.0,1.0,97,0.00,,OVC080,0.00,VWS V14.01,2013-05-08 05:36:00,
2013-05-08 01:41:00,53.8,52.7,29.87,South,187,1.0,1.0,96,0.00,,OVC080,0.00,VWS V14.01,2013-05-08 05:41:00,
2013-05-08 01:46:00,53.5,52.4,29.87,South,187,1.0,1.0,96,0.00,,,0.00,VWS V14.01,2013-05-08 05:46:00,
2013-05-08 01:50:00,53.3,52.5,29.87,South,187,1.0,1.0,97,0.00,,,0.00,VWS V14.01,2013-05-08 05:50:00,
2013-05-08 01:55:00,53.3,52.5,29.87,South,187,1.0,1.0,97,0.00,,,0.00,VWS V14.01,2013-05-08 05:55:00,
2013-05-08 02:00:00,53.2,52.4,29.86,South,187,1.0,1.0,97,0.00,,,0.00,VWS V14.01,2013-05-08 06:00:00,
2013-05-08 02:05:00,53.2,52.7,29.86,South,187,1.0,1.0,98,0.00,,,0.00,VWS V14.01,2013-05-08 06:05:00,
2013-05-08 02:10:00,53.2,52.7,29.86,South,187,1.0,1.0,98,0.00,,,0.00,VWS V14.01,2013-05-08 06:10:00,
2013-05-08 02:15:00,53.1,52.5,29.86,South,187,1.0,1.0,98,0.00,,,0.00,VWS V14.01,2013-05-08 06:15:00,
2013-05-08 02:20:00,52.9,52.3,29.86,South,187,1.0,1.0,98,0.00,,,0.00,VWS V14.01,2013-05-08 06:20:00,
2013-05-08 02:25:00,52.8,52.0,29.86,South,187,1.0,1.0,97,0.00,,,0.00,VWS V14.01,2013-05-08 06:25:00,
2013-05-08 02:30:00,52.5,51.7,29.86,South,187,1.0,1.0,97,0.00,,,0.00,VWS V14.01,2013-05-08 06:30:00,
2013-05-08 02:35:00,52.2,51.4,29.86,South,187,1.0,1.0,97,0.00,,,0.00,VWS V14.01,2013-05-08 06:35:00,
2013-05-08 02:40:00,52.2,51.7,29.86,South,187,1.0,1.0,98,0.00,,,0.00,VWS V14.01,2013-05-08 06:40:00,
2013-05-08 02:45:00,52.0,51.2,29.86,South,187,1.0,1.0,97,0.00,,,0.00,VWS V14.01,2013-05-08 06:45:00,
2013-05-08 02:50:00,51.9,51.4,29.86,South,187,1.0,1.0,98,0.00,,,0.00,VWS V14.01,2013-05-08 06:50:00,
2013-05-08 02:55:00,51.9,51.4,29.86,South,187,1.0,1.0,98,0.00,,,0.00,VWS V14.01,2013-05-08 06:55:00,
2013-05-08 03:00:00,51.9,51.4,29.86,South,187,1.0,1.0,98,0.00,,,0.00,VWS V14.01,2013-05-08 07:00:00,
2013-05-08 03:05:00,51.7,51.4,29.86,South,187,1.0,1.0,99,0.00,,,0.00,VWS V14.01,2013-05-08 07:05:00,
2013-05-08 03:10:00,51.7,51.4,29.86,South,187,1.0,1.0,99,0.00,,,0.00,VWS V14.01,2013-05-08 07:10:00,
2013-05-08 03:15:00,51.7,51.4,29.86,South,187,1.0,1.0,99,0.00,,,0.00,VWS V14.01,2013-05-08 07:15:00,
2013-05-08 03:20:00,51.6,51.3,29.86,South,187,1.0,1.0,99,0.00,,,0.00,VWS V14.01,2013-05-08 07:20:00,
2013-05-08 03:25:00,51.6,51.3,29.86,South,187,1.0,1.0,99,0.00,,,0.00,VWS V14.01,2013-05-08 07:25:00,
2013-05-08 03:30:00,51.4,51.1,29.86,South,187,1.0,1.0,99,0.00,,,0.00,VWS V14.01,2013-05-08 07:30:00,
2013-05-08 03:35:00,51.3,51.0,29.86,South,187,1.0,1.0,99,0.00,,,0.00,VWS V14.01,2013-05-08 07:35:00,
2013-05-08 03:40:00,51.1,50.8,29.86,South,187,1.0,1.0,99,0.00,,,0.00,VWS V14.01,2013-05-08 07:40:00,
2013-05-08 03:45:00,51.3,51.0,29.86,South,187,1.0,1.0,99,0.00,,,0.00,VWS V14.01,2013-05-08 07:45:00,
2013-05-08 03:50:00,51.3,51.3,29.86,South,187,1.0,1.0,100,0.00,,,0.00,VWS V14.01,2013-05-08 07:50:00,
2013-05-08 03:55:00,51.3,51.3,29.86,South,187,1.0,1.0,100,0.00,,,0.00,VWS V14.01,2013-05-08 07:55:00,
2013-05-08 04:00:00,51.1,50.8,29.86,South,187,1.0,1.0,99,0.00,,,0.00,VWS V14.01,2013-05-08 08:00:00,
2013-05-08 04:05:00,51.1,50.8,29.86,South,187,1.0,1.0,99,0.00,,,0.00,VWS V14.01,2013-05-08 08:05:00,
2013-05-08 04:10:00,51.0,50.7,29.86,South,187,1.0,1.0,99,0.00,,,0.00,VWS V14.01,2013-05-08 08:10:00,
2013-05-08 04:15:00,50.8,50.5,29.86,South,187,1.0,1.0,99,0.00,,,0.00,VWS V14.01,2013-05-08 08:15:00,
2013-05-08 04:20:00,50.8,50.8,29.86,South,187,1.0,1.0,100,0.00,,,0.00,VWS V14.01,2013-05-08 08:20:00,
2013-05-08 04:25:00,50.8,50.8,29.86,South,187,1.0,1.0,100,0.00,,,0.00,VWS V14.01,2013-05-08 08:25:00,
2013-05-08 04:30:00,50.7,50.7,29.86,South,187,1.0,1.0,100,0.00,,,0.00,VWS V14.01,2013-05-08 08:30:00,
2013-05-08 04:35:00,50.5,50.2,29.86,South,187,1.0,1.0,99,0.00,,,0.00,VWS V14.01,2013-05-08 08:35:00,
2013-05-08 04:40:00,50.4,50.1,29.86,South,187,1.0,1.0,99,0.00,,,0.00,VWS V14.01,2013-05-08 08:40:00,
2013-05-08 04:45:00,50.4,50.4,29.86,South,187,1.0,1.0,100,0.00,,,0.00,VWS V14.01,2013-05-08 08:45:00,
2013-05-08 04:50:00,50.4,50.4,29.86,South,187,1.0,1.0,100,0.00,,,0.00,VWS V14.01,2013-05-08 08:50:00,
2013-05-08 04:55:00,50.4,50.4,29.86,South,187,1.0,1.0,100,0.00,,,0.00,VWS V14.01,2013-05-08 08:55:00,
2013-05-08 05:00:00,50.4,50.4,29.87,South,187,1.0,1.0,100,0.00,,,0.00,VWS V14.01,2013-05-08 09:00:00,
2013-05-08 05:05:00,50.2,50.2,29.87,South,187,1.0,1.0,100,0.00,,,0.00,VWS V14.01,2013-05-08 09:05:00,
2013-05-08 05:10:00,50.2,50.2,29.87,South,187,1.0,1.0,100,0.00,,,0.00,VWS V14.01,2013-05-08 09:10:00,
2013-05-08 05:15:00,50.2,50.2,29.87,South,187,1.0,1.0,100,0.00,,,0.00,VWS V14.01,2013-05-08 09:15:00,
2013-05-08 05:20:00,50.2,50.2,29.87,South,187,1.0,1.0,100,0.00,,,0.00,VWS V14.01,2013-05-08 09:20:00,
2013-05-08 05:25:00,50.2,50.2,29.87,South,187,1.0,1.0,100,0.00,,,0.00,VWS V14.01,2013-05-08 09:25:00,
2013-05-08 05:30:00,50.2,50.2,29.87,South,187,1.0,1.0,100,0.00,,,0.00,VWS V14.01,2013-05-08 09:30:00,
2013-05-08 05:35:00,50.1,50.1,29.87,South,187,1.0,1.0,100,0.00,,,0.00,VWS V14.01,2013-05-08 09:35:00,
2013-05-08 05:40:00,50.1,50.1,29.87,South,187,1.0,1.0,100,0.00,,,0.00,VWS V14.01,2013-05-08 09:40:00,
2013-05-08 05:45:00,50.1,50.1,29.87,South,187,1.0,1.0,100,0.00,,,0.00,VWS V14.01,2013-05-08 09:45:00,
2013-05-08 05:50:00,50.1,50.1,29.87,South,187,1.0,1.0,100,0.00,,,0.00,VWS V14.01,2013-05-08 09:50:00,
2013-05-08 05:55:00,50.2,50.2,29.87,South,187,1.0,1.0,100,0.00,,,0.00,VWS V14.01,2013-05-08 09:55:00,
2013-05-08 06:00:00,50.2,50.2,29.88,South,187,1.0,1.0,100,0.00,,,0.00,VWS V14.01,2013-05-08 10:00:00,
2013-05-08 06:05:00,50.4,50.4,29.88,South,187,1.0,1.0,100,0.00,,,0.00,VWS V14.01,2013-05-08 10:05:00,
2013-05-08 06:10:00,50.4,50.4,29.88,South,187,1.0,1.0,100,0.00,,,0.00,VWS V14.01,2013-05-08 10:10:00,
2013-05-08 06:15:00,50.4,50.4,29.88,South,187,1.0,1.0,100,0.00,,,0.00,VWS V14.01,2013-05-08 10:15:00,
2013-05-08 06:20:00,50.4,50.4,29.88,South,187,1.0,1.0,100,0.00,,,0.00,VWS V14.01,2013-05-08 10:20:00,
2013-05-08 06:25:00,50.2,50.2,29.88,South,187,1.0,1.0,100,0.00,,,0.00,VWS V14.01,2013-05-08 10:25:00,
2013-05-08 06:30:00,50.2,50.2,29.89,South,187,1.0,1.0,100,0.00,,,0.00,VWS V14.01,2013-05-08 10:30:00,
2013-05-08 06:35:00,50.1,50.1,29.89,South,187,1.0,1.0,100,0.00,,,0.00,VWS V14.01,2013-05-08 10:35:00,
2013-05-08 06:40:00,49.9,49.9,29.89,South,187,1.0,1.0,100,0.00,,,0.00,VWS V14.01,2013-05-08 10:40:00,
2013-05-08 06:45:00,49.8,49.8,29.89,South,187,1.0,1.0,100,0.00,,FEW055,0.00,VWS V14.01,2013-05-08 10:45:00,
2013-05-08 06:50:00,49.8,49.8,29.89,South,187,1.0,1.0,100,0.00,,FEW055,0.00,VWS V14.01,2013-05-08 10:50:00,
2013-05-08 06:55:00,49.6,49.6,29.89,South,187,1.0,1.0,100,0.00,,FEW055,0.00,VWS V14.01,2013-05-08 10:55:00,
2013-05-08 07:00:00,49.6,49.6,29.90,South,187,1.0,1.0,100,0.00,,FEW055,0.00,VWS V14.01,2013-05-08 11:00:00,
2013-05-08 07:05:00,49.8,49.8,29.90,South,187,1.0,1.0,100,0.00,,FEW055,0.00,VWS V14.01,2013-05-08 11:05:00,
2013-05-08 07:10:00,49.9,49.9,29.90,South,187,1.0,1.0,100,0.00,,FEW055,0.00,VWS V14.01,2013-05-08 11:10:00,
2013-05-08 07:15:00,49.9,49.9,29.91,South,187,1.0,1.0,100,0.00,,FEW055,0.00,VWS V14.01,2013-05-08 11:15:00,
2013-05-08 07:20:00,49.9,49.9,29.91,South,187,1.0,1.0,100,0.00,,FEW055,0.00,VWS V14.01,2013-05-08 11:20:00,
2013-05-08 07:25:00,50.1,50.1,29.91,South,187,1.0,1.0,100,0.00,,FEW055,0.00,VWS V14.01,2013-05-08 11:25:00,
2013-05-08 07:30:00,50.4,50.4,29.92,South,187,1.0,1.0,100,0.00,,FEW055,0.00,VWS V14.01,2013-05-08 11:30:00,
2013-05-08 07:35:00,50.7,50.7,29.92,South,187,1.0,1.0,100,0.00,,FEW055,0.00,VWS V14.01,2013-05-08 11:35:00,
2013-05-08 07:40:00,50.8,50.8,29.92,South,187,1.0,1.0,100,0.00,,FEW055,0.00,VWS V14.01,2013-05-08 11:40:00,
2013-05-08 07:45:00,51.0,51.0,29.92,South,187,1.0,1.0,100,0.00,,CLR,0.00,VWS V14.01,2013-05-08 11:45:00,
2013-05-08 07:50:00,51.1,51.1,29.92,South,187,1.0,1.0,100,0.00,,CLR,0.00,VWS V14.01,2013-05-08 11:50:00,
2013-05-08 07:55:00,51.3,51.3,29.92,South,187,1.0,1.0,100,0.00,,CLR,0.00,VWS V14.01,2013-05-08 11:55:00,
2013-05-08 08:00:00,51.4,51.4,29.92,South,187,1.0,1.0,100,0.00,,CLR,0.00,VWS V14.01,2013-05-08 12:00:00,
2013-05-08 08:05:00,51.6,51.6,29.92,South,187,1.0,1.0,100,0.00,,CLR,0.00,VWS V14.01,2013-05-08 12:05:00,
2013-05-08 08:10:00,51.6,51.6,29.92,South,187,1.0,1.0,100,0.00,,CLR,0.00,VWS V14.01,2013-05-08 12:10:00,
2013-05-08 08:15:00,51.9,51.9,29.92,South,187,1.0,1.0,100,0.00,,CLR,0.00,VWS V14.01,2013-05-08 12:15:00,
2013-05-08 08:20:00,52.0,52.0,29.92,South,187,1.0,1.0,100,0.00,,CLR,0.00,VWS V14.01,2013-05-08 12:20:00,
2013-05-08 08:25:00,52.3,52.3,29.92,South,187,1.0,1.0,100,0.00,,CLR,0.00,VWS V14.01,2013-05-08 12:25:00,
2013-05-08 08:30:00,52.3,52.3,29.92,South,187,1.0,1.0,100,0.00,,CLR,0.00,VWS V14.01,2013-05-08 12:30:00,
2013-05-08 08:35:00,52.5,52.5,29.92,South,187,1.0,1.0,100,0.00,,CLR,0.00,VWS V14.01,2013-05-08 12:35:00,
2013-05-08 08:40:00,52.8,52.8,29.92,South,187,1.0,1.0,100,0.00,,CLR,0.00,VWS V14.01,2013-05-08 12:40:00,
2013-05-08 08:45:00,53.2,53.2,29.93,South,187,1.0,1.0,100,0.00,,CLR,0.00,VWS V14.01,2013-05-08 12:45:00,
2013-05-08 08:50:00,53.5,53.5,29.93,South,187,1.0,1.0,100,0.00,,CLR,0.00,VWS V14.01,2013-05-08 12:50:00,
2013-05-08 08:55:00,53.8,53.8,29.93,South,187,1.0,1.0,100,0.00,,CLR,0.00,VWS V14.01,2013-05-08 12:55:00,
2013-05-08 09:00:00,54.2,54.2,29.93,South,187,1.0,1.0,100,0.00,,CLR,0.00,VWS V14.01,2013-05-08 13:00:00,
2013-05-08 09:05:00,54.4,54.4,29.93,South,187,1.0,1.0,100,0.00,,CLR,0.00,VWS V14.01,2013-05-08 13:05:00,
2013-05-08 09:10:00,54.7,54.7,29.93,South,187,1.0,1.0,100,0.00,,CLR,0.00,VWS V14.01,2013-05-08 13:10:00,
2013-05-08 09:15:00,54.8,54.8,29.94,South,187,1.0,1.0,100,0.00,,CLR,0.00,VWS V14.01,2013-05-08 13:15:00,
2013-05-08 09:20:00,54.8,54.8,29.94,South,187,1.0,1.0,100,0.00,,CLR,0.00,VWS V14.01,2013-05-08 13:20:00,
2013-05-08 09:25:00,55.1,55.1,29.94,South,187,1.0,1.0,100,0.00,,CLR,0.00,VWS V14.01,2013-05-08 13:25:00,
2013-05-08 09:30:00,55.4,55.4,29.94,South,187,1.0,1.0,100,0.00,,CLR,0.00,VWS V14.01,2013-05-08 13:30:00,
2013-05-08 09:35:00,55.9,55.9,29.94,South,187,1.0,1.0,100,0.00,,CLR,0.00,VWS V14.01,2013-05-08 13:35:00,
2013-05-08 09:40:00,56.6,56.6,29.94,South,187,1.0,1.0,100,0.00,,CLR,0.00,VWS V14.01,2013-05-08 13:40:00,
2013-05-08 09:45:00,57.0,56.4,29.94,West,279,0.0,4.0,98,0.00,,CLR,0.00,VWS V14.01,2013-05-08 13:45:00,
2013-05-08 09:50:00,57.3,55.9,29.94,West,279,1.0,5.0,95,0.00,,CLR,0.00,VWS V14.01,2013-05-08 13:50:00,
2013-05-08 09:55:00,57.8,55.8,29.94,WNW,292,0.0,4.0,93,0.00,,CLR,0.00,VWS V14.01,2013-05-08 13:55:00,
2013-05-08 10:00:00,58.4,55.8,29.94,WSW,243,0.0,6.0,91,0.00,,CLR,0.00,VWS V14.01,2013-05-08 14:00:00,
2013-05-08 10:05:00,58.9,56.0,29.94,West,264,2.0,2.0,90,0.00,,CLR,0.00,VWS V14.01,2013-05-08 14:05:00,
2013-05-08 10:10:00,59.3,56.1,29.94,South,184,0.0,3.0,89,0.00,,CLR,0.00,VWS V14.01,2013-05-08 14:10:00,
2013-05-08 10:15:00,59.9,57.0,29.94,WNW,289,0.0,3.0,90,0.00,,CLR,0.00,VWS V14.01,2013-05-08 14:15:00,
2013-05-08 10:20:00,60.7,57.4,29.93,WNW,287,2.0,3.0,89,0.00,,CLR,0.00,VWS V14.01,2013-05-08 14:20:00,
2013-05-08 10:25:00,61.3,57.1,29.93,WNW,287,0.0,3.0,86,0.00,,CLR,0.00,VWS V14.01,2013-05-08 14:25:00,
2013-05-08 10:30:00,61.8,56.9,29.93,South,178,3.0,5.0,84,0.00,,CLR,0.00,VWS V14.01,2013-05-08 14:30:00,
2013-05-08 10:35:00,62.1,56.2,29.94,SW,228,0.0,5.0,81,0.00,,CLR,0.00,VWS V14.01,2013-05-08 14:35:00,
2013-05-08 10:40:00,62.4,56.2,29.94,North,5,0.0,5.0,80,0.00,,CLR,0.00,VWS V14.01,2013-05-08 14:40:00,
2013-05-08 10:45:00,62.9,56.3,29.94,West,280,0.0,4.0,79,0.00,,CLR,0.00,VWS V14.01,2013-05-08 14:45:00,
2013-05-08 10:49:00,63.4,56.1,29.94,West,279,0.0,3.0,77,0.00,,CLR,0.00,VWS V14.01,2013-05-08 14:49:00,
2013-05-08 10:54:00,63.7,56.0,29.94,SW,225,0.0,3.0,76,0.00,,CLR,0.00,VWS V14.01,2013-05-08 14:54:00,
2013-05-08 10:59:00,64.0,57.0,29.94,WNW,295,0.0,2.0,78,0.00,,CLR,0.00,VWS V14.01,2013-05-08 14:59:00,
2013-05-08 11:04:00,64.3,57.0,29.94,West,281,0.0,4.0,77,0.00,,CLR,0.00,VWS V14.01,2013-05-08 15:04:00,
2013-05-08 11:09:00,64.5,57.1,29.94,South,191,0.0,4.0,77,0.00,,CLR,0.00,VWS V14.01,2013-05-08 15:09:00,
2013-05-08 11:14:00,64.5,57.1,29.94,SW,236,1.0,4.0,77,0.00,,CLR,0.00,VWS V14.01,2013-05-08 15:14:00,
2013-05-08 11:19:00,64.3,56.6,29.94,WSW,239,0.0,3.0,76,0.00,,CLR,0.00,VWS V14.01,2013-05-08 15:19:00,
2013-05-08 11:24:00,64.3,57.0,29.94,SSW,194,0.0,2.0,77,0.00,,CLR,0.00,VWS V14.01,2013-05-08 15:24:00,
2013-05-08 11:29:00,64.2,57.6,29.94,ENE,61,0.0,1.0,79,0.00,,CLR,0.00,VWS V14.01,2013-05-08 15:29:00,
2013-05-08 11:34:00,64.2,57.2,29.95,WNW,292,0.0,2.0,78,0.00,,CLR,0.00,VWS V14.01,2013-05-08 15:34:00,
2013-05-08 11:39:00,64.3,57.3,29.95,WSW,246,0.0,1.0,78,0.00,,CLR,0.00,VWS V14.01,2013-05-08 15:39:00,
2013-05-08 11:44:00,64.3,57.3,29.95,South,182,0.0,3.0,78,0.00,,CLR,0.00,VWS V14.01,2013-05-08 15:44:00,
2013-05-08 11:49:00,64.3,57.0,29.95,NNE,14,0.0,1.0,77,0.00,,BKN110,0.00,VWS V14.01,2013-05-08 15:49:00,
2013-05-08 11:54:00,64.3,57.3,29.95,West,272,3.0,3.0,78,0.00,,BKN110,0.00,VWS V14.01,2013-05-08 15:54:00,
2013-05-08 11:59:00,64.3,57.0,29.95,SE,132,2.0,3.0,77,0.00,,BKN110,0.00,VWS V14.01,2013-05-08 15:59:00,
2013-05-08 12:04:00,64.3,56.6,29.94,WSW,240,3.0,4.0,76,0.00,,BKN110,0.00,VWS V14.01,2013-05-08 16:04:00,
2013-05-08 12:09:00,64.3,57.3,29.94,WSW,244,0.0,3.0,78,0.00,,BKN110,0.00,VWS V14.01,2013-05-08 16:09:00,
2013-05-08 12:14:00,64.3,56.6,29.94,SSW,202,0.0,7.0,76,0.00,,BKN110,0.00,VWS V14.01,2013-05-08 16:14:00,
2013-05-08 12:19:00,64.3,57.3,29.94,WSW,258,0.0,2.0,78,0.00,,BKN110,0.00,VWS V14.01,2013-05-08 16:19:00,
2013-05-08 12:24:00,64.2,56.5,29.94,West,277,0.0,3.0,76,0.00,,BKN110,0.00,VWS V14.01,2013-05-08 16:24:00,
2013-05-08 12:29:00,64.2,56.5,29.94,SW,224,0.0,1.0,76,0.00,,BKN110,0.00,VWS V14.01,2013-05-08 16:29:00,
2013-05-08 12:34:00,64.0,56.7,29.94,West,281,2.0,2.0,77,0.00,,BKN110,0.00,VWS V14.01,2013-05-08 16:34:00,
2013-05-08 12:39:00,64.0,57.0,29.94,WNW,283,0.0,2.0,78,0.00,,BKN110,0.00,VWS V14.01,2013-05-08 16:39:00,
2013-05-08 12:44:00,64.2,56.8,29.94,West,263,0.0,2.0,77,0.00,,BKN110,0.00,VWS V14.01,2013-05-08 16:44:00,
2013-05-08 12:49:00,64.2,56.8,29.94,WSW,250,0.0,4.0,77,0.00,,BKN090,0.00,VWS V14.01,2013-05-08 16:49:00,
2013-05-08 12:54:00,64.3,57.3,29.94,WSW,250,0.0,1.0,78,0.00,,BKN090,0.00,VWS V14.01,2013-05-08 16:54:00,
2013-05-08 12:59:00,64.5,57.8,29.94,WSW,250,0.0,0.0,79,0.00,,BKN090,0.00,VWS V14.01,2013-05-08 16:59:00,
2013-05-08 13:04:00,64.8,57.1,29.94,West,261,0.0,3.0,76,0.00,,BKN090,0.00,VWS V14.01,2013-05-08 17:04:00,
2013-05-08 13:09:00,65.3,58.3,29.94,NNW,348,0.0,3.0,78,0.00,,BKN090,0.00,VWS V14.01,2013-05-08 17:09:00,
2013-05-08 13:14:00,65.5,56.6,29.94,West,271,0.0,3.0,73,0.00,,BKN090,0.00,VWS V14.01,2013-05-08 17:14:00,
2013-05-08 13:19:00,65.8,58.0,29.94,North,10,0.0,1.0,76,0.00,,BKN090,0.00,VWS V14.01,2013-05-08 17:19:00,
2013-05-08 13:24:00,66.1,57.6,29.94,West,263,2.0,5.0,74,0.00,,BKN090,0.00,VWS V14.01,2013-05-08 17:24:00,
2013-05-08 13:29:00,66.4,57.1,29.94,NW,315,0.0,0.0,72,0.00,,BKN090,0.00,VWS V14.01,2013-05-08 17:29:00,
2013-05-08 13:34:00,66.8,57.1,29.93,SW,229,0.0,5.0,71,0.00,,BKN090,0.00,VWS V14.01,2013-05-08 17:34:00,
2013-05-08 13:39:00,67.1,57.4,29.93,WSW,247,1.0,4.0,71,0.00,,BKN090,0.00,VWS V14.01,2013-05-08 17:39:00,
2013-05-08 13:44:00,67.4,57.7,29.93,WNW,293,0.0,1.0,71,0.00,,BKN090,0.00,VWS V14.01,2013-05-08 17:44:00,
2013-05-08 13:49:00,68.3,58.2,29.93,WNW,293,0.0,3.0,70,0.00,,SCT110,0.00,VWS V14.01,2013-05-08 17:49:00,
2013-05-08 13:54:00,69.6,59.4,29.93,West,263,0.0,6.0,70,0.00,,SCT110,0.00,VWS V14.01,2013-05-08 17:54:00,
2013-05-08 13:59:00,70.8,58.5,29.93,SSE,157,2.0,3.0,65,0.00,,SCT110,0.00,VWS V14.01,2013-05-08 17:59:00,
2013-05-08 14:04:00,72.0,58.3,29.92,SW,228,3.0,5.0,62,0.00,,BKN100,0.00,VWS V14.01,2013-05-08 18:04:00,
2013-05-08 14:09:00,72.7,57.6,29.92,SSW,193,0.0,6.0,59,0.00,,BKN100,0.00,VWS V14.01,2013-05-08 18:09:00,
2013-05-08 14:14:00,72.8,59.0,29.92,SW,230,1.0,8.0,62,0.00,,BKN100,0.00,VWS V14.01,2013-05-08 18:14:00,
2013-05-08 14:19:00,73.3,59.5,29.91,North,355,4.0,4.0,62,0.00,,SCT110,0.00,VWS V14.01,2013-05-08 18:19:00,
2013-05-08 14:24:00,73.9,57.2,29.91,South,169,0.0,3.0,56,0.00,,SCT110,0.00,VWS V14.01,2013-05-08 18:24:00,
2013-05-08 14:29:00,73.7,57.0,29.91,West,281,0.0,5.0,56,0.00,,SCT110,0.00,VWS V14.01,2013-05-08 18:29:00,
2013-05-08 14:34:00,74.2,56.5,29.91,WSW,240,1.0,4.0,54,0.00,,SCT110,0.00,VWS V14.01,2013-05-08 18:34:00,
2013-05-08 14:39:00,74.7,58.0,29.91,South,186,0.0,3.0,56,0.00,,SCT110,0.00,VWS V14.01,2013-05-08 18:39:00,
2013-05-08 14:44:00,75.3,56.5,29.91,NW,323,0.0,5.0,52,0.00,,SCT110,0.00,VWS V14.01,2013-05-08 18:44:00,
2013-05-08 14:49:00,75.6,57.3,29.91,NE,40,0.0,6.0,53,0.00,,CLR,0.00,VWS V14.01,2013-05-08 18:49:00,
2013-05-08 14:54:00,76.1,57.8,29.91,SSE,167,0.0,4.0,53,0.00,,CLR,0.00,VWS V14.01,2013-05-08 18:54:00,
2013-05-08 14:59:00,75.8,55.9,29.91,West,278,2.0,3.0,50,0.00,,CLR,0.00,VWS V14.01,2013-05-08 18:59:00,
2013-05-08 15:04:00,75.1,56.3,29.90,West,265,0.0,5.0,52,0.00,,CLR,0.00,VWS V14.01,2013-05-08 19:04:00,
2013-05-08 15:09:00,74.7,56.5,29.90,WSW,247,0.0,5.0,53,0.00,,CLR,0.00,VWS V14.01,2013-05-08 19:09:00,
2013-05-08 15:14:00,75.3,55.9,29.90,West,260,0.0,4.0,51,0.00,,CLR,0.00,VWS V14.01,2013-05-08 19:14:00,
2013-05-08 15:19:00,75.4,56.0,29.90,WNW,286,1.0,6.0,51,0.00,,CLR,0.00,VWS V14.01,2013-05-08 19:19:00,
2013-05-08 15:24:00,75.3,55.9,29.90,WNW,286,1.0,5.0,51,0.00,,CLR,0.00,VWS V14.01,2013-05-08 19:24:00,
2013-05-08 15:29:00,74.7,56.5,29.90,West,259,0.0,5.0,53,0.00,,CLR,0.00,VWS V14.01,2013-05-08 19:29:00,
2013-05-08 15:34:00,74.6,57.4,29.90,WNW,288,1.0,4.0,55,0.00,,CLR,0.00,VWS V14.01,2013-05-08 19:34:00,
2013-05-08 15:39:00,74.4,56.2,29.90,NW,321,0.0,5.0,53,0.00,,CLR,0.00,VWS V14.01,2013-05-08 19:39:00,
2013-05-08 15:44:00,74.4,54.6,29.90,West,271,0.0,4.0,50,0.00,,CLR,0.00,VWS V14.01,2013-05-08 19:44:00,
2013-05-08 15:49:00,74.9,53.3,29.90,NW,316,1.0,5.0,47,0.00,,BKN046,0.00,VWS V14.01,2013-05-08 19:49:00,
2013-05-08 15:54:00,75.6,53.4,29.90,SSW,194,1.0,4.0,46,0.00,,BKN046,0.00,VWS V14.01,2013-05-08 19:54:00,
2013-05-08 15:59:00,75.6,53.4,29.90,NW,304,0.0,4.0,46,0.00,,BKN046,0.00,VWS V14.01,2013-05-08 19:59:00,
2013-05-08 16:04:00,75.3,53.7,29.90,West,276,0.0,4.0,47,0.00,,BKN046,0.00,VWS V14.01,2013-05-08 20:04:00,
2013-05-08 16:09:00,74.9,56.1,29.90,West,269,0.0,2.0,52,0.00,,BKN046,0.00,VWS V14.01,2013-05-08 20:09:00,
2013-05-08 16:14:00,74.6,55.3,29.90,SW,231,4.0,6.0,51,0.00,,BKN046,0.00,VWS V14.01,2013-05-08 20:14:00,
2013-05-08 16:19:00,74.0,54.7,29.90,WNW,290,0.0,4.0,51,0.00,,BKN046,0.00,VWS V14.01,2013-05-08 20:19:00,
2013-05-08 16:24:00,73.9,56.2,29.90,NNE,13,3.0,3.0,54,0.00,,BKN046,0.00,VWS V14.01,2013-05-08 20:24:00,
2013-05-08 16:29:00,73.7,55.5,29.90,NNW,327,1.0,1.0,53,0.00,,BKN046,0.00,VWS V14.01,2013-05-08 20:29:00,
2013-05-08 16:34:00,73.5,56.4,29.90,SW,217,0.0,4.0,55,0.00,,BKN046,0.00,VWS V14.01,2013-05-08 20:34:00,
2013-05-08 16:39:00,73.7,57.0,29.90,NW,315,0.0,2.0,56,0.00,,BKN046,0.00,VWS V14.01,2013-05-08 20:39:00,
2013-05-08 16:44:00,73.5,54.8,29.90,WNW,291,1.0,4.0,52,0.00,,BKN046,0.00,VWS V14.01,2013-05-08 20:44:00,
2013-05-08 16:49:00,73.5,55.3,29.89,ESE,110,0.0,1.0,53,0.00,,OVC100,0.00,VWS V14.01,2013-05-08 20:49:00,
2013-05-08 16:54:00,73.5,54.8,29.89,SSE,153,3.0,4.0,52,0.00,,OVC100,0.00,VWS V14.01,2013-05-08 20:54:00,
2013-05-08 16:59:00,73.3,55.7,29.89,SW,231,0.0,1.0,54,0.00,,OVC100,0.00,VWS V14.01,2013-05-08 20:59:00,
2013-05-08 17:04:00,73.3,54.6,29.90,NW,314,0.0,3.0,52,0.00,,OVC100,0.00,VWS V14.01,2013-05-08 21:04:00,
2013-05-08 17:09:00,73.3,54.6,29.90,WNW,283,0.0,4.0,52,0.00,,OVC100,0.00,VWS V14.01,2013-05-08 21:09:00,
2013-05-08 17:14:00,73.5,54.3,29.90,WNW,301,0.0,6.0,51,0.00,,OVC100,0.00,VWS V14.01,2013-05-08 21:14:00,
2013-05-08 17:19:00,73.9,55.2,29.89,WNW,286,3.0,5.0,52,0.00,,OVC100,0.00,VWS V14.01,2013-05-08 21:19:00,
2013-05-08 17:24:00,73.7,53.9,29.89,WNW,294,0.0,4.0,50,0.00,,OVC100,0.00,VWS V14.01,2013-05-08 21:24:00,
2013-05-08 17:29:00,73.5,54.3,29.89,WSW,252,0.0,4.0,51,0.00,,OVC100,0.00,VWS V14.01,2013-05-08 21:29:00,
2013-05-08 17:34:00,73.3,54.6,29.90,West,268,1.0,3.0,52,0.00,,OVC100,0.00,VWS V14.01,2013-05-08 21:34:00,
2013-05-08 17:39:00,73.7,55.0,29.90,WNW,299,6.0,7.0,52,0.00,,OVC100,0.00,VWS V14.01,2013-05-08 21:39:00,
2013-05-08 17:44:00,74.0,54.7,29.90,West,264,1.0,4.0,51,0.00,,OVC100,0.00,VWS V14.01,2013-05-08 21:44:00,
2013-05-08 17:49:00,73.9,53.6,29.89,SSW,207,4.0,5.0,49,0.00,,BKN100,0.00,VWS V14.01,2013-05-08 21:49:00,
2013-05-08 17:54:00,74.2,56.0,29.89,SW,234,0.0,1.0,53,0.00,,BKN100,0.00,VWS V14.01,2013-05-08 21:54:00,
2013-05-08 17:59:00,74.7,55.4,29.89,West,268,0.0,2.0,51,0.00,,BKN100,0.00,VWS V14.01,2013-05-08 21:59:00,
2013-05-08 18:04:00,74.9,54.5,29.89,West,278,1.0,4.0,49,0.00,,BKN100,0.00,VWS V14.01,2013-05-08 22:04:00,
2013-05-08 18:09:00,74.6,54.8,29.89,West,265,0.0,4.0,50,0.00,,BKN100,0.00,VWS V14.01,2013-05-08 22:09:00,
2013-05-08 18:14:00,74.4,55.1,29.89,NW,318,0.0,4.0,51,0.00,,BKN100,0.00,VWS V14.01,2013-05-08 22:14:00,
2013-05-08 18:19:00,74.2,54.4,29.89,WNW,288,1.0,5.0,50,0.00,,BKN100,0.00,VWS V14.01,2013-05-08 22:19:00,
2013-05-08 18:24:00,73.9,54.1,29.89,WNW,282,0.0,3.0,50,0.00,,BKN100,0.00,VWS V14.01,2013-05-08 22:24:00,
2013-05-08 18:29:00,73.5,55.3,29.89,WSW,258,3.0,4.0,53,0.00,,BKN100,0.00,VWS V14.01,2013-05-08 22:29:00,
2013-05-08 18:34:00,73.3,54.6,29.89,WSW,249,0.0,2.0,52,0.00,,BKN100,0.00,VWS V14.01,2013-05-08 22:34:00,
2013-05-08 18:39:00,73.2,54.0,29.89,SSW,192,0.0,3.0,51,0.00,,BKN100,0.00,VWS V14.01,2013-05-08 22:39:00,
2013-05-08 18:44:00,73.0,55.4,29.89,WNW,298,0.0,3.0,54,0.00,,BKN100,0.00,VWS V14.01,2013-05-08 22:44:00,
2013-05-08 18:49:00,72.7,54.6,29.90,WSW,253,2.0,2.0,53,0.00,,OVC100,0.00,VWS V14.01,2013-05-08 22:49:00,
2013-05-08 18:54:00,72.5,56.4,29.90,West,269,0.0,1.0,57,0.00,,OVC100,0.00,VWS V14.01,2013-05-08 22:54:00,
2013-05-08 18:59:00,72.1,54.6,29.90,WSW,253,0.0,1.0,54,0.00,,OVC100,0.00,VWS V14.01,2013-05-08 22:59:00,
2013-05-08 19:04:00,72.1,54.6,29.90,NE,34,0.0,3.0,54,0.00,,OVC100,0.00,VWS V14.01,2013-05-08 23:04:00,
2013-05-08 19:09:00,72.1,55.1,29.90,NNE,17,0.0,0.0,55,0.00,,OVC100,0.00,VWS V14.01,2013-05-08 23:09:00,
2013-05-08 19:14:00,72.1,55.1,29.90,West,281,1.0,2.0,55,0.00,,OVC100,0.00,VWS V14.01,2013-05-08 23:14:00,
2013-05-08 19:19:00,72.0,55.5,29.90,SW,225,0.0,3.0,56,0.00,,OVC100,0.00,VWS V14.01,2013-05-08 23:19:00,
2013-05-08 19:24:00,72.0,55.5,29.90,SW,235,0.0,1.0,56,0.00,,OVC100,0.00,VWS V14.01,2013-05-08 23:24:00,
2013-05-08 19:29:00,71.8,55.3,29.90,WSW,242,0.0,3.0,56,0.00,,OVC100,0.00,VWS V14.01,2013-05-08 23:29:00,
2013-05-08 19:34:00,71.6,55.6,29.90,West,268,0.0,0.0,57,0.00,,OVC100,0.00,VWS V14.01,2013-05-08 23:34:00,
2013-05-08 19:39:00,71.3,57.2,29.90,West,268,0.0,0.0,61,0.00,,OVC100,0.00,VWS V14.01,2013-05-08 23:39:00,
2013-05-08 19:44:00,70.8,57.2,29.90,West,268,0.0,0.0,62,0.00,,OVC100,0.00,VWS V14.01,2013-05-08 23:44:00,
2013-05-08 19:49:00,70.3,57.1,29.91,West,268,0.0,0.0,63,0.00,,FEW090,0.00,VWS V14.01,2013-05-08 23:49:00,
2013-05-08 19:54:00,69.6,56.9,29.91,West,268,0.0,0.0,64,0.00,,FEW090,0.00,VWS V14.01,2013-05-08 23:54:00,
2013-05-08 19:59:00,69.1,56.8,29.91,West,268,0.0,0.0,65,0.00,,FEW090,0.00,VWS V14.01,2013-05-08 23:59:00,
2013-05-08 20:04:00,68.6,56.8,29.91,West,268,0.0,0.0,66,0.00,,FEW090,0.00,VWS V14.01,2013-05-09 00:04:00,
2013-05-08 20:09:00,68.1,56.3,29.91,West,268,0.0,0.0,66,0.00,,FEW090,0.00,VWS V14.01,2013-05-09 00:09:00,
2013-05-08 20:14:00,67.8,56.5,29.91,West,268,0.0,0.0,67,0.00,,FEW090,0.00,VWS V14.01,2013-05-09 00:14:00,
2013-05-08 20:19:00,67.3,56.4,29.92,West,268,0.0,0.0,68,0.00,,BKN100,0.00,VWS V14.01,2013-05-09 00:19:00,
2013-05-08 20:24:00,66.9,56.8,29.92,West,268,0.0,0.0,70,0.00,,BKN100,0.00,VWS V14.01,2013-05-09 00:24:00,
2013-05-08 20:29:00,66.6,56.9,29.92,West,268,0.0,0.0,71,0.00,,BKN100,0.00,VWS V14.01,2013-05-09 00:29:00,
2013-05-08 20:34:00,66.1,56.8,29.93,West,268,0.0,0.0,72,0.00,,BKN100,0.00,VWS V14.01,2013-05-09 00:34:00,
2013-05-08 20:39:00,65.8,56.9,29.93,West,268,0.0,0.0,73,0.00,,BKN100,0.00,VWS V14.01,2013-05-09 00:39:00,
2013-05-08 20:44:00,65.3,56.4,29.93,West,268,0.0,0.0,73,0.00,,BKN100,0.00,VWS V14.01,2013-05-09 00:44:00,
2013-05-08 20:49:00,65.0,56.9,29.93,West,268,0.0,0.0,75,0.00,,BKN100,0.00,VWS V14.01,2013-05-09 00:49:00,
2013-05-08 20:54:00,64.5,56.4,29.93,West,268,0.0,0.0,75,0.00,,BKN100,0.00,VWS V14.01,2013-05-09 00:54:00,
2013-05-08 20:59:00,64.3,56.6,29.93,West,268,0.0,0.0,76,0.00,,BKN100,0.00,VWS V14.01,2013-05-09 00:59:00,
2013-05-08 21:04:00,64.0,56.7,29.94,West,268,0.0,0.0,77,0.00,,BKN100,0.00,VWS V14.01,2013-05-09 01:04:00,
2013-05-08 21:09:00,63.9,57.3,29.94,West,268,0.0,0.0,79,0.00,,BKN100,0.00,VWS V14.01,2013-05-09 01:09:00,
2013-05-08 21:14:00,63.5,56.9,29.94,West,268,0.0,0.0,79,0.00,,BKN100,0.00,VWS V14.01,2013-05-09 01:14:00,
2013-05-08 21:19:00,63.2,56.6,29.94,West,268,0.0,0.0,79,0.00,,BKN100,0.00,VWS V14.01,2013-05-09 01:19:00,
2013-05-08 21:24:00,63.1,56.8,29.94,West,268,0.0,0.0,80,0.00,,BKN100,0.00,VWS V14.01,2013-05-09 01:24:00,
2013-05-08 21:28:00,62.9,57.0,29.94,West,268,0.0,0.0,81,0.00,,BKN100,0.00,VWS V14.01,2013-05-09 01:28:00,
2013-05-08 21:33:00,62.6,57.0,29.94,West,268,0.0,0.0,82,0.00,,BKN100,0.00,VWS V14.01,2013-05-09 01:33:00,
2013-05-08 21:38:00,62.4,56.8,29.94,West,268,0.0,0.0,82,0.00,,BKN100,0.00,VWS V14.01,2013-05-09 01:38:00,
2013-05-08 21:43:00,62.3,57.1,29.94,West,268,0.0,0.0,83,0.00,,BKN100,0.00,VWS V14.01,2013-05-09 01:43:00,
2013-05-08 21:48:00,62.1,56.9,29.94,West,268,0.0,0.0,83,0.00,,FEW110,0.00,VWS V14.01,2013-05-09 01:48:00,
2013-05-08 21:53:00,62.0,57.1,29.94,West,268,0.0,0.0,84,0.00,,FEW110,0.00,VWS V14.01,2013-05-09 01:53:00,
2013-05-08 21:58:00,61.6,56.7,29.94,West,268,0.0,0.0,84,0.00,,FEW110,0.00,VWS V14.01,2013-05-09 01:58:00,
2013-05-08 22:03:00,61.5,57.0,29.94,West,268,0.0,0.0,85,0.00,,FEW110,0.00,VWS V14.01,2013-05-09 02:03:00,
2013-05-08 22:08:00,61.3,56.8,29.94,West,268,0.0,0.0,85,0.00,,FEW110,0.00,VWS V14.01,2013-05-09 02:08:00,
2013-05-08 22:13:00,61.2,56.7,29.94,West,268,0.0,0.0,85,0.00,,FEW110,0.00,VWS V14.01,2013-05-09 02:13:00,
2013-05-08 22:18:00,61.0,56.5,29.94,West,268,0.0,0.0,85,0.00,,FEW110,0.00,VWS V14.01,2013-05-09 02:18:00,
2013-05-08 22:23:00,61.0,56.5,29.94,West,268,0.0,0.0,85,0.00,,FEW110,0.00,VWS V14.01,2013-05-09 02:23:00,
2013-05-08 22:28:00,60.9,56.4,29.94,West,268,0.0,0.0,85,0.00,,FEW110,0.00,VWS V14.01,2013-05-09 02:28:00,
2013-05-08 22:33:00,60.9,56.4,29.95,West,268,0.0,0.0,85,0.00,,FEW110,0.00,VWS V14.01,2013-05-09 02:33:00,
2013-05-08 22:38:00,60.9,56.7,29.95,West,268,0.0,0.0,86,0.00,,FEW110,0.00,VWS V14.01,2013-05-09 02:38:00,
2013-05-08 22:43:00,60.9,56.7,29.95,West,268,0.0,0.0,86,0.00,,FEW110,0.00,VWS V14.01,2013-05-09 02:43:00,
2013-05-08 22:48:00,61.0,56.5,29.95,West,268,0.0,0.0,85,0.00,,FEW110,0.00,VWS V14.01,2013-05-09 02:48:00,
2013-05-08 22:53:00,61.2,56.7,29.95,North,0,0.0,0.0,85,0.00,,,0.00,VWS V14.01,2013-05-09 02:53:00,
2013-05-08 22:58:00,61.2,56.3,29.95,North,0,0.0,0.0,84,0.00,,,0.00,VWS V14.01,2013-05-09 02:58:00,
2013-05-08 23:03:00,61.3,56.4,29.95,North,0,0.0,0.0,84,0.00,,CLR,0.00,VWS V14.01,2013-05-09 03:03:00,
2013-05-08 23:08:00,61.3,56.4,29.95,North,0,0.0,0.0,84,0.00,,CLR,0.00,VWS V14.01,2013-05-09 03:08:00,
2013-05-08 23:13:00,61.3,56.4,29.95,North,0,0.0,0.0,84,0.00,,CLR,0.00,VWS V14.01,2013-05-09 03:13:00,
2013-05-08 23:18:00,61.3,56.4,29.95,North,0,0.0,0.0,84,0.00,,CLR,0.00,VWS V14.01,2013-05-09 03:18:00,
2013-05-08 23:23:00,61.3,56.4,29.95,North,0,0.0,0.0,84,0.00,,CLR,0.00,VWS V14.01,2013-05-09 03:23:00,
2013-05-08 23:28:00,61.2,56.7,29.95,North,0,0.0,0.0,85,0.00,,CLR,0.00,VWS V14.01,2013-05-09 03:28:00,
2013-05-08 23:33:00,61.2,57.0,29.95,North,0,0.0,0.0,86,0.00,,CLR,0.00,VWS V14.01,2013-05-09 03:33:00,
2013-05-08 23:38:00,61.0,56.8,29.95,North,0,0.0,0.0,86,0.00,,CLR,0.00,VWS V14.01,2013-05-09 03:38:00,
2013-05-08 23:43:00,60.9,56.7,29.95,North,0,0.0,0.0,86,0.00,,CLR,0.00,VWS V14.01,2013-05-09 03:43:00,
2013-05-08 23:48:00,60.5,56.6,29.96,North,0,0.0,0.0,87,0.00,,CLR,0.00,VWS V14.01,2013-05-09 03:48:00,
2013-05-08 23:53:00,60.4,56.8,29.96,North,0,0.0,0.0,88,0.00,,CLR,0.00,VWS V14.01,2013-05-09 03:53:00,
2013-05-08 23:58:00,60.2,56.6,29.96,North,0,0.0,0.0,88,0.00,,CLR,0.00,VWS V14.01,2013-05-09 03:58:00,